Time;durP1;ratioP1;P1;durP2;ratioP2;P2;SDS_P1;SDS_P2;PMS_P1;PMS_P2;Temp;Humidity;BMP_temperature;BMP_pressure;BME280_temperature;BME280_humidity;BME280_pressure;Samples;Min_cycle;Max_cycle;Signal;HPM_P1;HPM_P2
2023/09/06 00:00:33;;;;;;;1.15;1.05;;;26.00;54.50;;;;;;5029335;28;20105;-63
2023/09/06 00:02:59;;;;;;;1.30;1.00;;;26.00;54.50;;;;;;5029724;28;20021;-62
2023/09/06 00:05:26;;;;;;;2.17;1.33;;;26.00;54.50;;;;;;5033329;28;20077;-62
2023/09/06 00:07:53;;;;;;;2.42;1.20;;;26.00;54.50;;;;;;5032810;28;20034;-62
2023/09/06 00:10:19;;;;;;;1.20;1.08;;;26.00;54.40;;;;;;5036958;28;20053;-60
2023/09/06 00:12:46;;;;;;;1.75;1.15;;;26.00;54.40;;;;;;5041450;28;20037;-62
2023/09/06 00:15:15;;;;;;;1.58;1.10;;;26.00;54.40;;;;;;5014651;28;20108;-62
2023/09/06 00:17:41;;;;;;;1.48;1.25;;;26.00;54.40;;;;;;5028217;28;20393;-61
2023/09/06 00:20:20;;;;;;;1.95;1.23;;;26.00;54.40;;;;;;5033991;28;20428;-61
2023/09/06 00:22:57;;;;;;;1.95;1.00;;;26.00;54.40;;;;;;5016186;28;20060;-61
2023/09/06 00:25:25;;;;;;;2.70;1.95;;;25.90;54.30;;;;;;5036374;28;20356;-60
2023/09/06 00:27:52;;;;;;;1.33;1.23;;;25.90;54.30;;;;;;5007933;28;20365;-63
2023/09/06 00:30:18;;;;;;;1.38;1.10;;;26.00;54.30;;;;;;5043179;28;20336;-63
2023/09/06 00:32:45;;;;;;;1.10;1.00;;;25.90;54.30;;;;;;5036625;28;20131;-64
2023/09/06 00:35:16;;;;;;;2.17;1.27;;;25.90;54.30;;;;;;5032825;28;20038;-62
2023/09/06 00:37:45;;;;;;;1.38;1.10;;;25.90;54.20;;;;;;5034809;28;20037;-62
2023/09/06 00:40:21;;;;;;;3.65;1.58;;;25.90;54.20;;;;;;5037146;28;20048;-61
2023/09/06 00:42:50;;;;;;;1.55;1.15;;;25.90;54.20;;;;;;5030006;28;20088;-61
2023/09/06 00:45:20;;;;;;;1.75;1.20;;;25.90;54.20;;;;;;5031131;28;20117;-61
2023/09/06 00:47:46;;;;;;;1.70;1.20;;;25.90;54.20;;;;;;5010678;28;20045;-63
2023/09/06 00:50:14;;;;;;;1.80;1.10;;;25.90;54.10;;;;;;5029476;28;20037;-61
2023/09/06 00:52:41;;;;;;;1.38;1.00;;;25.90;54.10;;;;;;5015328;28;20037;-61
2023/09/06 00:55:09;;;;;;;1.52;1.40;;;25.90;54.10;;;;;;5035797;28;20072;-61
2023/09/06 00:57:35;;;;;;;2.75;1.35;;;25.90;54.10;;;;;;5037969;28;20043;-63
2023/09/06 01:00:05;;;;;;;2.15;1.42;;;25.90;54.10;;;;;;5026898;28;20018;-61
2023/09/06 01:02:32;;;;;;;2.03;1.20;;;25.90;54.00;;;;;;5029020;28;20029;-62
2023/09/06 01:04:58;;;;;;;1.85;1.20;;;25.80;53.90;;;;;;5043455;28;20116;-62
2023/09/06 01:07:27;;;;;;;1.90;1.23;;;25.80;53.90;;;;;;5031354;28;20029;-63
2023/09/06 01:09:53;;;;;;;1.88;1.13;;;25.80;53.80;;;;;;5032218;28;20025;-64
2023/09/06 01:12:19;;;;;;;1.30;1.02;;;25.80;53.80;;;;;;5012470;28;20044;-63
2023/09/06 01:14:45;;;;;;;1.88;1.30;;;25.80;53.80;;;;;;5012883;28;20124;-61
2023/09/06 01:17:15;;;;;;;1.25;0.98;;;25.80;53.70;;;;;;5026830;28;20641;-64
2023/09/06 01:19:47;;;;;;;1.65;1.05;;;25.80;53.70;;;;;;5012601;28;20048;-61
2023/09/06 01:22:26;;;;;;;1.30;1.20;;;25.80;53.70;;;;;;5033749;28;20021;-62
2023/09/06 01:24:52;;;;;;;1.70;1.20;;;25.80;53.60;;;;;;5027502;28;20048;-64
2023/09/06 01:27:19;;;;;;;2.00;1.33;;;25.80;53.60;;;;;;5009780;28;20025;-61
2023/09/06 01:29:46;;;;;;;2.00;1.33;;;25.80;53.60;;;;;;5013986;28;20044;-64
2023/09/06 01:32:13;;;;;;;1.70;1.10;;;25.80;53.60;;;;;;5011929;28;20345;-61
2023/09/06 01:34:39;;;;;;;2.03;1.42;;;25.80;53.60;;;;;;5012322;28;20425;-61
2023/09/06 01:37:05;;;;;;;2.13;1.30;;;25.80;53.60;;;;;;5010021;28;20048;-62
2023/09/06 01:39:31;;;;;;;1.48;1.27;;;25.80;53.50;;;;;;5026081;28;20649;-61
2023/09/06 01:41:57;;;;;;;1.58;1.02;;;25.80;53.50;;;;;;5027033;28;20037;-60
2023/09/06 01:44:23;;;;;;;3.17;1.10;;;25.80;53.50;;;;;;5031145;28;20030;-64
2023/09/06 01:46:49;;;;;;;2.08;1.10;;;25.80;53.40;;;;;;5029769;28;20041;-62
2023/09/06 01:49:14;;;;;;;1.90;1.20;;;25.80;53.40;;;;;;5014502;28;20033;-62
2023/09/06 01:51:40;;;;;;;1.92;1.38;;;25.80;53.40;;;;;;5040313;28;20029;-61
2023/09/06 01:54:08;;;;;;;1.33;1.20;;;25.80;53.40;;;;;;5030581;28;20061;-65
2023/09/06 01:56:34;;;;;;;1.60;1.20;;;25.70;53.40;;;;;;5038821;28;20026;-62
2023/09/06 01:58:59;;;;;;;1.30;1.20;;;25.80;53.40;;;;;;5018090;28;20285;-61
2023/09/06 02:01:25;;;;;;;2.28;1.25;;;25.80;53.50;;;;;;5017839;28;20032;-62
2023/09/06 02:03:51;;;;;;;1.90;1.30;;;25.70;53.30;;;;;;5017792;28;20026;-62
2023/09/06 02:06:17;;;;;;;1.30;1.10;;;25.80;53.40;;;;;;5034826;28;20112;-61
2023/09/06 02:08:43;;;;;;;2.03;1.45;;;25.70;53.30;;;;;;5020731;28;20028;-62
2023/09/06 02:11:09;;;;;;;1.85;1.25;;;25.70;53.30;;;;;;5036205;28;20408;-61
2023/09/06 02:13:35;;;;;;;2.13;1.15;;;25.70;53.30;;;;;;5035519;28;20037;-62
2023/09/06 02:16:01;;;;;;;1.38;1.10;;;25.70;53.30;;;;;;5037471;28;20040;-63
2023/09/06 02:18:27;;;;;;;1.73;1.10;;;25.70;53.30;;;;;;5018646;28;20163;-61
2023/09/06 02:20:56;;;;;;;1.48;1.10;;;25.70;53.30;;;;;;5020736;28;20376;-62
2023/09/06 02:23:22;;;;;;;1.20;1.10;;;25.70;53.30;;;;;;5020554;28;20021;-62
2023/09/06 02:25:48;;;;;;;1.98;1.10;;;25.70;53.30;;;;;;5039772;28;20124;-63
2023/09/06 02:28:17;;;;;;;1.95;1.23;;;25.70;53.20;;;;;;5035317;28;20025;-61
2023/09/06 02:30:45;;;;;;;1.92;1.40;;;25.70;53.30;;;;;;5020610;28;20127;-60
2023/09/06 02:33:14;;;;;;;1.52;1.10;;;25.70;53.20;;;;;;5038221;28;20454;-64
2023/09/06 02:35:44;;;;;;;1.17;0.95;;;25.70;53.20;;;;;;5017591;28;20037;-61
2023/09/06 02:38:11;;;;;;;1.70;1.27;;;25.70;53.20;;;;;;5014520;28;20029;-61
2023/09/06 02:40:40;;;;;;;1.45;1.08;;;25.60;53.10;;;;;;5019708;28;20021;-62
2023/09/06 02:43:07;;;;;;;1.52;1.00;;;25.60;53.10;;;;;;5038411;28;20060;-62
2023/09/06 02:45:36;;;;;;;3.53;1.17;;;25.60;53.10;;;;;;5033199;28;20353;-62
2023/09/06 02:48:15;;;;;;;1.38;1.20;;;25.60;53.10;;;;;;5034439;28;20539;-61
2023/09/06 02:50:43;;;;;;;1.10;0.90;;;25.60;53.10;;;;;;5037162;28;20328;-62
2023/09/06 02:53:20;;;;;;;1.42;1.00;;;25.60;53.10;;;;;;5036014;28;20048;-61
2023/09/06 02:55:51;;;;;;;1.45;1.05;;;25.60;53.10;;;;;;5033981;28;20043;-61
2023/09/06 02:58:23;;;;;;;1.75;1.25;;;25.60;53.10;;;;;;5031711;28;20026;-63
2023/09/06 03:00:55;;;;;;;3.33;1.23;;;25.60;53.10;;;;;;5009639;28;20355;-65
2023/09/06 03:03:23;;;;;;;1.50;1.15;;;25.60;53.10;;;;;;5033826;28;20083;-61
2023/09/06 03:05:48;;;;;;;2.30;1.40;;;25.60;53.10;;;;;;5004510;28;20069;-61
2023/09/06 03:08:16;;;;;;;1.25;1.10;;;25.60;53.10;;;;;;5014639;28;20044;-64
2023/09/06 03:10:46;;;;;;;1.90;1.23;;;25.60;53.10;;;;;;5007212;28;20057;-63
2023/09/06 03:13:15;;;;;;;1.40;1.02;;;25.60;53.10;;;;;;5008610;28;20319;-61
2023/09/06 03:15:43;;;;;;;2.45;1.40;;;25.60;53.10;;;;;;5018550;28;20057;-63
2023/09/06 03:18:10;;;;;;;1.48;1.23;;;25.60;53.10;;;;;;5026765;28;20094;-61
2023/09/06 03:20:45;;;;;;;1.45;1.17;;;25.60;53.20;;;;;;5003593;28;20433;-63
2023/09/06 03:23:19;;;;;;;2.15;1.13;;;25.60;53.10;;;;;;5022237;28;20040;-64
2023/09/06 03:25:57;;;;;;;1.35;1.05;;;25.50;53.10;;;;;;5018189;28;20107;-62
2023/09/06 03:28:28;;;;;;;1.13;1.02;;;25.50;53.00;;;;;;5008281;28;20440;-62
2023/09/06 03:30:58;;;;;;;2.03;1.25;;;25.50;53.10;;;;;;5003720;28;20113;-64
2023/09/06 03:33:25;;;;;;;1.42;1.13;;;25.50;53.00;;;;;;5003179;28;20365;-62
2023/09/06 03:35:52;;;;;;;1.60;1.20;;;25.50;53.00;;;;;;5011190;28;20459;-62
2023/09/06 03:38:19;;;;;;;1.88;1.50;;;25.50;53.00;;;;;;5023787;28;20103;-62
2023/09/06 03:40:45;;;;;;;2.13;1.38;;;25.50;53.00;;;;;;5013909;28;20149;-61
2023/09/06 03:43:29;;;;;;;1.48;1.05;;;25.50;53.00;;;;;;5013293;28;20021;-63
2023/09/06 03:45:58;;;;;;;1.77;1.20;;;25.50;52.90;;;;;;5010934;28;20136;-62
2023/09/06 03:48:27;;;;;;;1.33;1.02;;;25.50;53.00;;;;;;4986846;28;20057;-61
2023/09/06 03:50:59;;;;;;;1.50;1.20;;;25.50;52.90;;;;;;4982853;28;20067;-62
2023/09/06 03:53:26;;;;;;;1.67;1.27;;;25.50;52.90;;;;;;4986028;28;20046;-62
2023/09/06 03:55:57;;;;;;;2.13;1.42;;;25.50;52.90;;;;;;4990558;28;20373;-62
2023/09/06 03:58:28;;;;;;;2.53;1.67;;;25.50;52.90;;;;;;5005432;28;20165;-63
2023/09/06 04:00:55;;;;;;;1.48;1.20;;;25.50;52.90;;;;;;4974279;28;20031;-63
2023/09/06 04:03:30;;;;;;;1.60;1.23;;;25.50;52.90;;;;;;4992746;28;20026;-61
2023/09/06 04:05:57;;;;;;;1.70;1.27;;;25.50;52.90;;;;;;4998825;28;20022;-61
2023/09/06 04:08:28;;;;;;;1.35;1.23;;;25.50;52.80;;;;;;4984021;28;20101;-61
2023/09/06 04:10:55;;;;;;;1.52;1.20;;;25.40;52.90;;;;;;5000266;28;20023;-62
2023/09/06 04:13:21;;;;;;;2.17;1.30;;;25.40;52.80;;;;;;4988067;28;20049;-62
2023/09/06 04:15:48;;;;;;;2.08;1.45;;;25.40;52.80;;;;;;4989539;28;21165;-62
2023/09/06 04:18:14;;;;;;;1.38;1.13;;;25.40;52.90;;;;;;4988829;28;20088;-62
2023/09/06 04:20:46;;;;;;;1.20;0.98;;;25.40;52.80;;;;;;4992803;28;20121;-62
2023/09/06 04:23:16;;;;;;;2.08;1.50;;;25.40;52.70;;;;;;4989451;28;20139;-61
2023/09/06 04:25:45;;;;;;;1.27;1.15;;;25.40;52.70;;;;;;4997488;28;20434;-62
2023/09/06 04:28:21;;;;;;;2.20;1.35;;;25.40;52.70;;;;;;4987532;28;20040;-61
2023/09/06 04:30:49;;;;;;;1.35;1.00;;;25.40;52.70;;;;;;4972542;28;20047;-61
2023/09/06 04:33:18;;;;;;;2.17;1.60;;;25.40;52.70;;;;;;4986061;28;20129;-61
2023/09/06 04:35:55;;;;;;;1.98;1.38;;;25.40;52.70;;;;;;4985066;28;20501;-61
2023/09/06 04:38:23;;;;;;;1.65;1.20;;;25.40;52.70;;;;;;4976009;28;20084;-61
2023/09/06 04:40:54;;;;;;;1.95;1.30;;;25.40;52.60;;;;;;4982999;28;20049;-62
2023/09/06 04:43:22;;;;;;;1.42;1.20;;;25.40;52.70;;;;;;4991117;28;20030;-63
2023/09/06 04:45:49;;;;;;;1.60;1.15;;;25.30;52.60;;;;;;4984816;28;20034;-63
2023/09/06 04:48:17;;;;;;;1.35;1.13;;;25.30;52.50;;;;;;5014533;28;20453;-63
2023/09/06 04:50:47;;;;;;;2.30;1.23;;;25.30;52.50;;;;;;5036183;28;20053;-64
2023/09/06 04:53:17;;;;;;;2.42;1.00;;;25.30;52.50;;;;;;5034476;28;20048;-61
2023/09/06 04:55:49;;;;;;;2.17;1.40;;;25.30;52.50;;;;;;5011062;28;20532;-61
2023/09/06 04:58:18;;;;;;;2.28;1.55;;;25.30;52.50;;;;;;5006789;28;20018;-63
2023/09/06 05:00:47;;;;;;;1.20;1.10;;;25.30;52.50;;;;;;5022687;28;20033;-61
2023/09/06 05:03:17;;;;;;;1.70;1.10;;;25.30;52.50;;;;;;4997451;28;20030;-62
2023/09/06 05:05:46;;;;;;;2.15;1.35;;;25.30;52.50;;;;;;5003477;28;20026;-60
2023/09/06 05:08:12;;;;;;;1.50;1.23;;;25.30;52.50;;;;;;5005499;28;20129;-61
2023/09/06 05:10:41;;;;;;;2.38;1.20;;;25.30;52.50;;;;;;5036612;28;20033;-61
2023/09/06 05:13:07;;;;;;;1.27;1.10;;;25.30;52.40;;;;;;5000635;28;20121;-62
2023/09/06 05:15:37;;;;;;;1.70;1.40;;;25.30;52.50;;;;;;5006612;28;20712;-62
2023/09/06 05:18:05;;;;;;;1.65;1.20;;;25.30;52.50;;;;;;5035050;28;20026;-61
2023/09/06 05:20:33;;;;;;;1.50;1.10;;;25.30;52.50;;;;;;5009062;28;20080;-62
2023/09/06 05:23:12;;;;;;;1.50;1.13;;;25.30;52.50;;;;;;5024233;28;20408;-62
2023/09/06 05:25:39;;;;;;;2.20;1.10;;;25.30;52.50;;;;;;5034672;28;20077;-62
2023/09/06 05:28:11;;;;;;;1.85;1.33;;;25.30;52.50;;;;;;5008659;28;20368;-61
2023/09/06 05:30:41;;;;;;;1.63;1.15;;;25.30;52.50;;;;;;5001041;28;20037;-61
2023/09/06 05:33:10;;;;;;;1.40;1.10;;;25.20;52.40;;;;;;5007027;28;20093;-61
2023/09/06 05:35:37;;;;;;;2.00;1.08;;;25.20;52.50;;;;;;5005218;28;20048;-61
2023/09/06 05:38:03;;;;;;;1.52;1.05;;;25.20;52.50;;;;;;5005981;28;20021;-61
2023/09/06 05:40:32;;;;;;;2.00;1.13;;;25.20;52.50;;;;;;5010911;28;20160;-63
2023/09/06 05:42:59;;;;;;;1.80;1.10;;;25.20;52.50;;;;;;5004450;28;20048;-62
2023/09/06 05:45:26;;;;;;;1.45;1.15;;;25.20;52.50;;;;;;5009359;28;20078;-61
2023/09/06 05:47:53;;;;;;;2.17;1.67;;;25.20;52.50;;;;;;5008642;28;20046;-63
2023/09/06 05:50:20;;;;;;;2.33;1.65;;;25.20;52.50;;;;;;4999545;28;20420;-60
2023/09/06 05:52:47;;;;;;;2.17;1.70;;;25.20;52.50;;;;;;5009618;28;20116;-61
2023/09/06 05:55:14;;;;;;;2.00;1.60;;;25.20;52.50;;;;;;5010499;28;20084;-62
2023/09/06 05:57:41;;;;;;;1.90;1.50;;;25.20;52.60;;;;;;5013064;28;20025;-61
2023/09/06 06:00:12;;;;;;;1.88;1.40;;;25.20;52.50;;;;;;5013448;28;20105;-62
2023/09/06 06:02:46;;;;;;;2.38;1.80;;;25.20;52.60;;;;;;5010578;28;20056;-61
2023/09/06 06:05:12;;;;;;;2.33;1.63;;;25.20;52.60;;;;;;4993859;28;20034;-62
2023/09/06 06:07:39;;;;;;;2.35;1.75;;;25.20;52.60;;;;;;5009894;28;20356;-61
2023/09/06 06:10:09;;;;;;;2.95;1.40;;;25.20;52.60;;;;;;5011728;28;20064;-63
2023/09/06 06:12:38;;;;;;;2.22;1.65;;;25.20;53.20;;;;;;5009492;28;20038;-63
2023/09/06 06:15:08;;;;;;;2.83;1.50;;;25.20;52.60;;;;;;5012111;28;20084;-63
2023/09/06 06:17:37;;;;;;;2.75;1.67;;;25.20;52.70;;;;;;5007988;28;20026;-62
2023/09/06 06:20:09;;;;;;;2.15;1.48;;;25.20;52.70;;;;;;5010140;28;20072;-63
2023/09/06 06:22:38;;;;;;;2.20;1.23;;;25.20;52.80;;;;;;5015454;28;20052;-61
2023/09/06 06:25:05;;;;;;;1.80;1.30;;;25.20;52.80;;;;;;5011930;28;20029;-60
2023/09/06 06:27:31;;;;;;;2.08;1.30;;;25.20;52.80;;;;;;5006440;28;20026;-61
2023/09/06 06:29:57;;;;;;;2.72;1.58;;;25.20;52.80;;;;;;5006392;28;20022;-61
2023/09/06 06:32:23;;;;;;;2.03;1.33;;;25.20;52.90;;;;;;5010275;28;20025;-61
2023/09/06 06:34:51;;;;;;;3.13;1.63;;;25.20;52.90;;;;;;5010138;28;20037;-62
2023/09/06 06:37:17;;;;;;;3.03;1.50;;;25.20;52.90;;;;;;5015207;28;20029;-60
2023/09/06 06:39:43;;;;;;;4.38;1.92;;;25.20;52.90;;;;;;5003169;28;20069;-63
2023/09/06 06:42:09;;;;;;;2.88;1.63;;;25.20;53.00;;;;;;5009469;28;20102;-62
2023/09/06 06:44:47;;;;;;;3.17;1.52;;;25.20;53.00;;;;;;5008865;28;20026;-63
2023/09/06 06:47:14;;;;;;;3.47;1.67;;;25.20;53.00;;;;;;5001609;28;20096;-61
2023/09/06 06:49:40;;;;;;;4.32;2.17;;;25.20;53.00;;;;;;4991625;28;20034;-62
2023/09/06 06:52:06;;;;;;;2.97;1.70;;;25.30;53.10;;;;;;4994458;28;20369;-62
2023/09/06 06:54:31;;;;;;;2.63;1.48;;;25.20;53.00;;;;;;4990706;28;20045;-61
2023/09/06 06:56:57;;;;;;;3.83;1.80;;;25.20;53.10;;;;;;4993359;28;20025;-62
2023/09/06 06:59:23;;;;;;;3.13;1.42;;;25.20;53.00;;;;;;4989335;28;20138;-62
2023/09/06 07:01:49;;;;;;;4.30;1.65;;;25.30;53.10;;;;;;4996477;28;20034;-63
2023/09/06 07:04:15;;;;;;;2.78;1.55;;;25.30;53.10;;;;;;4995761;28;20387;-62
2023/09/06 07:06:41;;;;;;;2.28;1.50;;;25.30;53.10;;;;;;4988259;28;20112;-63
2023/09/06 07:09:07;;;;;;;2.42;1.65;;;25.30;53.10;;;;;;4995488;28;22100;-62
2023/09/06 07:11:33;;;;;;;2.00;1.58;;;25.30;53.10;;;;;;4991530;28;20046;-61
2023/09/06 07:13:59;;;;;;;1.80;1.40;;;25.30;53.10;;;;;;4995318;28;20045;-62
2023/09/06 07:16:25;;;;;;;2.60;1.70;;;25.30;53.10;;;;;;4997338;28;20033;-61
2023/09/06 07:18:51;;;;;;;2.45;1.33;;;25.30;53.10;;;;;;5002240;28;20133;-62
2023/09/06 07:21:18;;;;;;;3.22;1.60;;;25.30;53.10;;;;;;4997870;28;20023;-60
2023/09/06 07:23:45;;;;;;;2.15;1.58;;;25.30;53.10;;;;;;4994312;28;20084;-62
2023/09/06 07:26:11;;;;;;;3.15;1.70;;;25.30;53.20;;;;;;4993035;28;20360;-60
2023/09/06 07:28:46;;;;;;;2.63;1.65;;;25.30;53.20;;;;;;4998949;28;20034;-61
2023/09/06 07:31:14;;;;;;;2.42;1.70;;;25.30;53.20;;;;;;4992311;28;20089;-60
2023/09/06 07:33:40;;;;;;;2.58;1.50;;;25.30;53.20;;;;;;4991519;28;20086;-61
2023/09/06 07:36:07;;;;;;;2.28;1.52;;;25.30;53.20;;;;;;4997504;28;20118;-60
2023/09/06 07:38:33;;;;;;;1.85;1.42;;;25.30;53.20;;;;;;4995619;28;20072;-61
2023/09/06 07:41:01;;;;;;;3.85;1.42;;;25.30;53.20;;;;;;4996584;28;20038;-64
2023/09/06 07:43:28;;;;;;;1.67;1.52;;;25.30;53.20;;;;;;4997354;28;20038;-61
2023/09/06 07:46:01;;;;;;;2.70;1.58;;;25.30;53.20;;;;;;4996534;28;20030;-60
2023/09/06 07:48:29;;;;;;;2.33;1.13;;;25.30;53.20;;;;;;5027841;28;20037;-60
2023/09/06 07:50:56;;;;;;;1.08;0.98;;;25.40;53.30;;;;;;5031241;28;20021;-60
2023/09/06 07:53:24;;;;;;;2.28;1.77;;;25.40;53.30;;;;;;5031059;28;20128;-61
2023/09/06 07:55:50;;;;;;;1.52;1.33;;;25.40;53.30;;;;;;5028699;28;20026;-61
2023/09/06 07:58:16;;;;;;;1.85;1.27;;;25.40;53.30;;;;;;5028619;28;20037;-60
2023/09/06 08:00:43;;;;;;;2.22;1.40;;;25.40;53.30;;;;;;5032673;28;20455;-63
2023/09/06 08:03:09;;;;;;;2.45;1.50;;;25.40;53.40;;;;;;5014936;28;20033;-60
2023/09/06 08:05:35;;;;;;;2.50;1.52;;;25.40;53.40;;;;;;5015314;28;20366;-62
2023/09/06 08:08:03;;;;;;;1.65;1.40;;;25.40;53.40;;;;;;5042305;28;20061;-61
2023/09/06 08:10:29;;;;;;;1.52;1.33;;;25.40;53.40;;;;;;5037294;28;20041;-60
2023/09/06 08:12:55;;;;;;;1.98;1.33;;;25.40;53.40;;;;;;5030019;28;20107;-61
2023/09/06 08:15:22;;;;;;;1.50;1.20;;;25.40;53.40;;;;;;5014847;28;20064;-62
2023/09/06 08:17:49;;;;;;;2.72;1.83;;;25.40;53.40;;;;;;5037558;28;20036;-61
2023/09/06 08:20:16;;;;;;;2.45;1.48;;;25.40;53.50;;;;;;5040584;28;20155;-60
2023/09/06 08:22:42;;;;;;;2.10;1.20;;;25.50;53.50;;;;;;5043850;28;20033;-61
2023/09/06 08:25:08;;;;;;;2.20;1.50;;;25.50;53.50;;;;;;5043287;28;20090;-60
2023/09/06 08:27:35;;;;;;;2.30;1.60;;;25.50;53.50;;;;;;5050713;28;20036;-60
2023/09/06 08:30:00;;;;;;;2.40;1.42;;;25.40;53.40;;;;;;5044329;28;20060;-62
2023/09/06 08:32:26;;;;;;;1.73;1.40;;;25.50;53.50;;;;;;5041409;28;20325;-61
2023/09/06 08:34:52;;;;;;;1.65;1.38;;;25.50;53.50;;;;;;5048155;28;20036;-61
2023/09/06 08:37:18;;;;;;;2.03;1.30;;;25.50;53.50;;;;;;5027713;28;20366;-61
2023/09/06 08:39:44;;;;;;;2.17;1.40;;;25.50;53.50;;;;;;5044847;28;20045;-62
2023/09/06 08:42:10;;;;;;;2.05;1.50;;;25.50;53.40;;;;;;5044988;28;20108;-60
2023/09/06 08:44:37;;;;;;;3.22;1.33;;;25.50;53.40;;;;;;5046395;28;20025;-62
2023/09/06 08:47:08;;;;;;;1.95;1.58;;;25.50;53.40;;;;;;5043422;28;20041;-62
2023/09/06 08:49:36;;;;;;;5.00;1.63;;;25.50;53.40;;;;;;5043239;28;20021;-61
2023/09/06 08:52:03;;;;;;;1.33;0.98;;;25.50;53.40;;;;;;5023313;28;20093;-62
2023/09/06 08:54:29;;;;;;;2.15;1.30;;;25.50;53.40;;;;;;5043900;28;21666;-61
2023/09/06 08:56:57;;;;;;;1.70;1.27;;;25.50;53.40;;;;;;5023287;28;20347;-62
2023/09/06 08:59:25;;;;;;;1.90;1.27;;;25.60;53.50;;;;;;5045460;28;20071;-62
2023/09/06 09:01:51;;;;;;;2.67;1.40;;;25.60;53.50;;;;;;5041799;28;20043;-62
2023/09/06 09:04:17;;;;;;;2.47;1.40;;;25.60;53.40;;;;;;5046057;28;20036;-60
2023/09/06 09:06:44;;;;;;;1.63;1.13;;;25.60;53.40;;;;;;5042691;28;20033;-61
2023/09/06 09:09:20;;;;;;;1.38;1.20;;;25.60;53.40;;;;;;5021239;28;20029;-62
2023/09/06 09:11:50;;;;;;;2.00;1.40;;;25.60;53.40;;;;;;5037806;28;20045;-62
2023/09/06 09:14:23;;;;;;;1.55;1.20;;;25.60;53.40;;;;;;5045816;28;20049;-61
2023/09/06 09:16:56;;;;;;;1.50;1.17;;;25.50;53.40;;;;;;5036942;28;20068;-62
2023/09/06 09:19:22;;;;;;;1.80;1.40;;;25.60;53.50;;;;;;5036439;28;20117;-60
2023/09/06 09:21:55;;;;;;;2.47;1.52;;;25.60;53.50;;;;;;5046292;28;20094;-61
2023/09/06 09:24:29;;;;;;;2.28;1.40;;;25.60;53.60;;;;;;5040342;28;20099;-61
2023/09/06 09:26:56;;;;;;;1.98;1.17;;;25.60;53.60;;;;;;5040477;28;20017;-62
2023/09/06 09:29:28;;;;;;;1.40;1.10;;;25.60;53.50;;;;;;5040050;28;20029;-62
2023/09/06 09:32:02;;;;;;;2.88;1.20;;;25.60;53.50;;;;;;5042682;28;20040;-62
2023/09/06 09:34:28;;;;;;;1.60;1.30;;;25.60;53.40;;;;;;5043967;28;20154;-60
2023/09/06 09:36:54;;;;;;;2.13;1.55;;;25.60;53.30;;;;;;5045826;28;20432;-59
2023/09/06 09:39:27;;;;;;;2.72;1.70;;;25.60;53.30;;;;;;5043085;28;20075;-59
2023/09/06 09:41:57;;;;;;;2.40;1.48;;;25.60;53.20;;;;;;5039860;28;20033;-59
2023/09/06 09:44:23;;;;;;;2.00;1.33;;;25.60;53.80;;;;;;5028637;28;20104;-60
2023/09/06 09:46:53;;;;;;;2.97;1.70;;;25.60;53.10;;;;;;5035153;28;20125;-59
2023/09/06 09:49:21;;;;;;;1.73;1.10;;;25.70;53.20;;;;;;5034122;28;20054;-60
2023/09/06 09:51:50;;;;;;;2.28;1.50;;;25.60;53.10;;;;;;5042828;28;20033;-61
2023/09/06 09:54:19;;;;;;;1.90;1.30;;;25.70;53.20;;;;;;5040345;28;20057;-59
2023/09/06 09:56:59;;;;;;;2.28;1.13;;;25.70;53.10;;;;;;5017062;28;20132;-58
2023/09/06 09:59:26;;;;;;;2.22;1.50;;;25.70;53.00;;;;;;5028188;28;20021;-61
2023/09/06 10:01:54;;;;;;;2.25;1.45;;;25.70;52.90;;;;;;5021841;28;20386;-61
2023/09/06 10:04:21;;;;;;;2.20;1.40;;;25.70;52.90;;;;;;5035979;28;20035;-62
2023/09/06 10:06:47;;;;;;;1.60;1.30;;;25.70;52.80;;;;;;5039670;28;20033;-63
2023/09/06 10:09:16;;;;;;;2.53;1.40;;;25.80;52.90;;;;;;5041522;28;20056;-61
2023/09/06 10:11:43;;;;;;;2.70;1.55;;;25.70;52.80;;;;;;5009385;28;20061;-62
2023/09/06 10:14:11;;;;;;;1.90;1.35;;;25.70;52.70;;;;;;5032554;28;20163;-60
2023/09/06 10:16:38;;;;;;;1.45;1.30;;;25.80;52.70;;;;;;5035768;28;20036;-62
2023/09/06 10:19:04;;;;;;;2.85;1.65;;;25.80;52.60;;;;;;5031485;28;20179;-61
2023/09/06 10:21:31;;;;;;;3.72;1.50;;;25.80;52.50;;;;;;5033819;28;20483;-61
2023/09/06 10:23:58;;;;;;;2.90;1.50;;;25.80;52.30;;;;;;5032011;28;20032;-62
2023/09/06 10:26:34;;;;;;;2.13;1.45;;;25.80;52.20;;;;;;5043905;28;20113;-61
2023/09/06 10:29:00;;;;;;;3.03;1.40;;;25.80;52.00;;;;;;5034978;28;20030;-61
2023/09/06 10:31:53;;;;;;;2.05;1.42;;;25.80;51.90;;;;;;5039884;28;20503;-61
2023/09/06 10:34:20;;;;;;;2.08;1.42;;;25.80;51.70;;;;;;5031216;28;20049;-62
2023/09/06 10:36:57;;;;;;;5.00;1.67;;;25.80;51.60;;;;;;5031833;28;20453;-61
2023/09/06 10:39:26;;;;;;;2.08;1.33;;;25.80;51.40;;;;;;5031341;28;20033;-62
2023/09/06 10:42:13;;;;;;;1.80;1.33;;;25.80;51.40;;;;;;5034353;28;20061;-61
2023/09/06 10:44:54;;;;;;;3.88;1.70;;;25.90;51.40;;;;;;5005074;28;20158;-62
2023/09/06 10:47:34;;;;;;;1.67;1.20;;;25.90;51.40;;;;;;5047219;28;20037;-62
2023/09/06 10:50:07;;;;;;;1.67;1.52;;;25.90;51.80;;;;;;5033180;28;20064;-63
2023/09/06 10:52:57;;;;;;;2.05;1.40;;;25.90;52.10;;;;;;5031255;28;20357;-61
2023/09/06 10:55:27;;;;;;;12.32;5.28;;;26.00;52.30;;;;;;5034255;28;20088;-62
2023/09/06 10:58:06;;;;;;;20.60;8.13;;;26.00;53.20;;;;;;5033114;28;20044;-63
2023/09/06 11:00:34;;;;;;;24.38;9.40;;;26.00;54.40;;;;;;5031551;28;20124;-62
2023/09/06 11:03:09;;;;;;;28.15;12.50;;;26.00;55.40;;;;;;5035113;28;20033;-63
2023/09/06 11:05:52;;;;;;;28.75;11.95;;;26.10;56.40;;;;;;5034160;28;20132;-62
2023/09/06 11:08:24;;;;;;;23.30;10.65;;;26.10;57.00;;;;;;5009210;28;20080;-62
2023/09/06 11:10:50;;;;;;;16.35;8.25;;;26.10;56.80;;;;;;5005080;28;20109;-61
2023/09/06 11:13:18;;;;;;;13.75;6.72;;;26.20;56.50;;;;;;5033846;28;20037;-61
2023/09/06 11:15:44;;;;;;;8.90;4.30;;;26.20;56.00;;;;;;5035976;28;20025;-62
2023/09/06 11:18:10;;;;;;;8.32;4.38;;;26.20;55.50;;;;;;5023817;28;20090;-62
2023/09/06 11:20:37;;;;;;;6.10;3.25;;;26.20;55.10;;;;;;5047174;28;20025;-61
2023/09/06 11:23:04;;;;;;;6.72;3.38;;;26.20;54.70;;;;;;5016140;28;20472;-61
2023/09/06 11:25:34;;;;;;;5.32;2.80;;;26.30;54.50;;;;;;5032242;28;20030;-63
2023/09/06 11:28:14;;;;;;;6.03;2.80;;;26.30;54.10;;;;;;5030533;28;20036;-63
2023/09/06 11:30:41;;;;;;;4.43;2.65;;;26.30;53.80;;;;;;5032110;28;20515;-61
2023/09/06 11:33:10;;;;;;;4.75;2.40;;;26.30;53.40;;;;;;5006881;28;20042;-62
2023/09/06 11:35:40;;;;;;;4.35;2.17;;;26.30;53.10;;;;;;5034785;28;20041;-62
2023/09/06 11:38:12;;;;;;;2.50;1.95;;;26.20;52.70;;;;;;5044943;28;20056;-63
2023/09/06 11:40:41;;;;;;;3.45;1.92;;;26.30;52.50;;;;;;5035207;28;20071;-63
2023/09/06 11:43:10;;;;;;;2.95;2.17;;;26.30;52.30;;;;;;5031062;28;20033;-63
2023/09/06 11:45:37;;;;;;;2.65;1.90;;;26.20;52.00;;;;;;5031229;28;20108;-63
2023/09/06 11:48:09;;;;;;;3.50;2.13;;;26.30;51.80;;;;;;5031757;28;20045;-64
2023/09/06 11:50:38;;;;;;;3.58;1.92;;;26.30;51.60;;;;;;5015975;28;20134;-64
2023/09/06 11:53:09;;;;;;;2.95;2.05;;;26.30;51.30;;;;;;5031632;28;20049;-62
2023/09/06 11:55:42;;;;;;;3.22;2.00;;;26.30;51.10;;;;;;5030532;28;20029;-62
2023/09/06 11:58:16;;;;;;;2.90;1.88;;;26.30;50.70;;;;;;5029930;28;20406;-63
2023/09/06 12:00:46;;;;;;;;;;;26.30;50.40;;;;;;5033601;28;20032;-62
2023/09/06 12:03:16;;;;;;;2.78;1.92;;;26.30;50.40;;;;;;5030064;28;19962;-63
2023/09/06 12:05:43;;;;;;;2.85;1.90;;;26.30;50.00;;;;;;5035999;28;20295;-63
2023/09/06 12:08:15;;;;;;;2.42;1.73;;;26.30;49.70;;;;;;5035014;28;20069;-62
2023/09/06 12:10:49;;;;;;;2.97;1.85;;;26.30;49.70;;;;;;5014316;28;20044;-61
2023/09/06 12:13:17;;;;;;;3.35;1.83;;;26.30;49.70;;;;;;5033850;28;20053;-62
2023/09/06 12:15:44;;;;;;;2.95;2.00;;;26.30;49.30;;;;;;5031779;28;20443;-64
2023/09/06 12:18:12;;;;;;;2.53;1.70;;;26.30;49.30;;;;;;5032914;28;20391;-62
2023/09/06 12:20:38;;;;;;;4.03;1.83;;;26.30;49.30;;;;;;5032130;28;20041;-63
2023/09/06 12:23:05;;;;;;;2.72;1.95;;;26.30;49.30;;;;;;5026863;28;20340;-62
2023/09/06 12:25:31;;;;;;;2.47;1.75;;;26.30;49.30;;;;;;5035774;28;20413;-62
2023/09/06 12:27:57;;;;;;;2.65;1.67;;;26.30;49.30;;;;;;4999095;28;20103;-62
2023/09/06 12:30:23;;;;;;;2.72;1.90;;;26.30;49.30;;;;;;5032546;28;20433;-63
2023/09/06 12:32:49;;;;;;;2.97;1.70;;;26.30;49.40;;;;;;5032843;28;20040;-63
2023/09/06 12:35:15;;;;;;;2.22;1.73;;;26.30;49.50;;;;;;5034282;28;20416;-62
2023/09/06 12:37:41;;;;;;;2.53;1.83;;;26.30;49.60;;;;;;5013313;28;20048;-64
2023/09/06 12:40:15;;;;;;;2.95;1.70;;;26.30;49.60;;;;;;5029427;28;20546;-63
2023/09/06 12:42:44;;;;;;;;;;;26.40;49.80;;;;;;5034104;28;20022;-64
2023/09/06 12:45:32;;;;;;;3.42;2.10;;;26.40;49.80;;;;;;5052372;28;20461;-63
2023/09/06 12:47:58;;;;;;;2.33;1.60;;;26.40;49.80;;;;;;5034713;28;20077;-63
2023/09/06 12:50:26;;;;;;;3.35;1.73;;;26.30;49.70;;;;;;5030400;28;20037;-63
2023/09/06 12:52:58;;;;;;;1.88;1.50;;;26.40;49.60;;;;;;5033982;28;20068;-64
2023/09/06 12:55:24;;;;;;;2.35;1.70;;;26.40;49.50;;;;;;5010606;28;20075;-63